sensor_id;sensor_type;location;lat;lon;timestamp;P1;durP1;ratioP1;P2;durP2;ratioP2
23163;SDS011;31429;42.674;23.350;2024-03-25T00:00:33;1.00;;;1.00;;
23163;SDS011;31429;42.674;23.350;2024-03-25T00:01:34;1.03;;;0.90;;
23163;SDS011;31429;42.674;23.350;2024-03-25T00:02:35;0.93;;;0.93;;
23163;SDS011;31429;42.674;23.350;2024-03-25T00:03:35;1.00;;;1.00;;
23163;SDS011;31429;42.674;23.350;2024-03-25T00:04:36;0.80;;;0.80;;
23163;SDS011;31429;42.674;23.350;2024-03-25T00:05:37;0.90;;;0.90;;
23163;SDS011;31429;42.674;23.350;2024-03-25T00:06:39;0.93;;;0.93;;
23163;SDS011;31429;42.674;23.350;2024-03-25T00:07:40;1.05;;;1.05;;
23163;SDS011;31429;42.674;23.350;2024-03-25T00:08:41;1.30;;;1.10;;
23163;SDS011;31429;42.674;23.350;2024-03-25T00:09:42;1.00;;;1.00;;
23163;SDS011;31429;42.674;23.350;2024-03-25T00:10:43;1.30;;;1.13;;
23163;SDS011;31429;42.674;23.350;2024-03-25T00:11:44;2.00;;;1.10;;
23163;SDS011;31429;42.674;23.350;2024-03-25T00:12:44;1.07;;;1.00;;
23163;SDS011;31429;42.674;23.350;2024-03-25T00:13:45;1.00;;;1.00;;
23163;SDS011;31429;42.674;23.350;2024-03-25T00:14:46;1.02;;;1.02;;
23163;SDS011;31429;42.674;23.350;2024-03-25T00:15:47;1.30;;;1.20;;
23163;SDS011;31429;42.674;23.350;2024-03-25T00:16:48;1.23;;;1.00;;
23163;SDS011;31429;42.674;23.350;2024-03-25T00:17:49;1.20;;;1.20;;
23163;SDS011;31429;42.674;23.350;2024-03-25T00:18:50;1.27;;;1.20;;
23163;SDS011;31429;42.674;23.350;2024-03-25T00:19:51;1.17;;;1.13;;
23163;SDS011;31429;42.674;23.350;2024-03-25T00:20:52;1.40;;;1.40;;
23163;SDS011;31429;42.674;23.350;2024-03-25T00:21:54;1.67;;;1.40;;
23163;SDS011;31429;42.674;23.350;2024-03-25T00:22:55;1.38;;;1.38;;
23163;SDS011;31429;42.674;23.350;2024-03-25T00:23:56;1.23;;;1.23;;
23163;SDS011;31429;42.674;23.350;2024-03-25T00:24:56;1.20;;;1.20;;
23163;SDS011;31429;42.674;23.350;2024-03-25T00:25:57;1.70;;;1.60;;
23163;SDS011;31429;42.674;23.350;2024-03-25T00:26:58;1.17;;;1.00;;
23163;SDS011;31429;42.674;23.350;2024-03-25T00:27:59;1.27;;;1.17;;
23163;SDS011;31429;42.674;23.350;2024-03-25T00:29:00;2.53;;;1.40;;
23163;SDS011;31429;42.674;23.350;2024-03-25T00:30:00;1.50;;;1.40;;
23163;SDS011;31429;42.674;23.350;2024-03-25T00:31:01;1.30;;;1.30;;
23163;SDS011;31429;42.674;23.350;2024-03-25T00:32:02;2.20;;;1.60;;
23163;SDS011;31429;42.674;23.350;2024-03-25T00:33:04;3.10;;;1.80;;
23163;SDS011;31429;42.674;23.350;2024-03-25T00:34:07;1.45;;;1.45;;
23163;SDS011;31429;42.674;23.350;2024-03-25T00:35:08;1.33;;;1.30;;
23163;SDS011;31429;42.674;23.350;2024-03-25T00:36:09;1.70;;;1.60;;
23163;SDS011;31429;42.674;23.350;2024-03-25T00:37:11;1.80;;;1.70;;
23163;SDS011;31429;42.674;23.350;2024-03-25T00:38:12;1.23;;;1.23;;
23163;SDS011;31429;42.674;23.350;2024-03-25T00:39:13;1.67;;;1.57;;
23163;SDS011;31429;42.674;23.350;2024-03-25T00:40:14;1.60;;;1.50;;
23163;SDS011;31429;42.674;23.350;2024-03-25T00:41:14;1.37;;;1.30;;
23163;SDS011;31429;42.674;23.350;2024-03-25T00:42:15;1.43;;;1.37;;
23163;SDS011;31429;42.674;23.350;2024-03-25T00:43:16;1.40;;;1.40;;
23163;SDS011;31429;42.674;23.350;2024-03-25T00:44:18;1.40;;;1.30;;
23163;SDS011;31429;42.674;23.350;2024-03-25T00:45:19;2.30;;;1.30;;
23163;SDS011;31429;42.674;23.350;2024-03-25T00:46:20;2.30;;;1.57;;
23163;SDS011;31429;42.674;23.350;2024-03-25T00:47:21;3.17;;;1.60;;
23163;SDS011;31429;42.674;23.350;2024-03-25T00:48:22;1.30;;;1.20;;
23163;SDS011;31429;42.674;23.350;2024-03-25T00:49:23;1.10;;;1.00;;
23163;SDS011;31429;42.674;23.350;2024-03-25T00:50:23;1.00;;;1.00;;
23163;SDS011;31429;42.674;23.350;2024-03-25T00:51:24;1.00;;;1.00;;
23163;SDS011;31429;42.674;23.350;2024-03-25T00:52:26;1.00;;;1.00;;
23163;SDS011;31429;42.674;23.350;2024-03-25T00:53:27;1.17;;;1.17;;
23163;SDS011;31429;42.674;23.350;2024-03-25T00:54:28;1.10;;;1.10;;
23163;SDS011;31429;42.674;23.350;2024-03-25T00:55:29;1.07;;;1.07;;
23163;SDS011;31429;42.674;23.350;2024-03-25T00:56:30;0.93;;;0.93;;
23163;SDS011;31429;42.674;23.350;2024-03-25T00:57:31;1.30;;;1.10;;
23163;SDS011;31429;42.674;23.350;2024-03-25T00:58:32;0.95;;;0.90;;
23163;SDS011;31429;42.674;23.350;2024-03-25T00:59:33;0.90;;;0.90;;
23163;SDS011;31429;42.674;23.350;2024-03-25T01:00:34;0.83;;;0.83;;
23163;SDS011;31429;42.674;23.350;2024-03-25T01:01:35;0.88;;;0.85;;
23163;SDS011;31429;42.674;23.350;2024-03-25T01:02:36;0.90;;;0.90;;
23163;SDS011;31429;42.674;23.350;2024-03-25T01:03:56;0.70;;;0.70;;
23163;SDS011;31429;42.674;23.350;2024-03-25T01:04:57;0.90;;;0.90;;
23163;SDS011;31429;42.674;23.350;2024-03-25T01:06:00;1.73;;;0.82;;
23163;SDS011;31429;42.674;23.350;2024-03-25T01:07:01;0.70;;;0.70;;
23163;SDS011;31429;42.674;23.350;2024-03-25T01:08:03;0.70;;;0.67;;
23163;SDS011;31429;42.674;23.350;2024-03-25T01:09:04;0.80;;;0.80;;
23163;SDS011;31429;42.674;23.350;2024-03-25T01:10:25;1.88;;;0.70;;
23163;SDS011;31429;42.674;23.350;2024-03-25T01:11:26;0.67;;;0.67;;
23163;SDS011;31429;42.674;23.350;2024-03-25T01:12:27;1.90;;;1.07;;
23163;SDS011;31429;42.674;23.350;2024-03-25T01:13:27;0.57;;;0.57;;
23163;SDS011;31429;42.674;23.350;2024-03-25T01:14:28;0.63;;;0.63;;
23163;SDS011;31429;42.674;23.350;2024-03-25T01:15:29;0.60;;;0.60;;
23163;SDS011;31429;42.674;23.350;2024-03-25T01:16:30;0.70;;;0.70;;
23163;SDS011;31429;42.674;23.350;2024-03-25T01:17:30;1.03;;;0.70;;
23163;SDS011;31429;42.674;23.350;2024-03-25T01:18:31;1.23;;;1.00;;
23163;SDS011;31429;42.674;23.350;2024-03-25T01:19:32;0.70;;;0.70;;
23163;SDS011;31429;42.674;23.350;2024-03-25T01:20:33;1.08;;;0.77;;
23163;SDS011;31429;42.674;23.350;2024-03-25T01:21:34;0.80;;;0.80;;
23163;SDS011;31429;42.674;23.350;2024-03-25T01:22:35;0.67;;;0.67;;
23163;SDS011;31429;42.674;23.350;2024-03-25T01:23:37;0.77;;;0.73;;
23163;SDS011;31429;42.674;23.350;2024-03-25T01:24:37;0.70;;;0.70;;
23163;SDS011;31429;42.674;23.350;2024-03-25T01:25:38;0.77;;;0.77;;
23163;SDS011;31429;42.674;23.350;2024-03-25T01:26:40;0.60;;;0.60;;
23163;SDS011;31429;42.674;23.350;2024-03-25T01:27:41;0.80;;;0.80;;
23163;SDS011;31429;42.674;23.350;2024-03-25T01:28:42;0.70;;;0.70;;
23163;SDS011;31429;42.674;23.350;2024-03-25T01:29:43;1.13;;;0.77;;
23163;SDS011;31429;42.674;23.350;2024-03-25T01:30:43;1.53;;;0.60;;
23163;SDS011;31429;42.674;23.350;2024-03-25T01:31:44;0.83;;;0.83;;
23163;SDS011;31429;42.674;23.350;2024-03-25T01:32:45;0.60;;;0.60;;
23163;SDS011;31429;42.674;23.350;2024-03-25T01:33:48;0.88;;;0.88;;
23163;SDS011;31429;42.674;23.350;2024-03-25T01:34:49;0.70;;;0.70;;
23163;SDS011;31429;42.674;23.350;2024-03-25T01:35:50;0.60;;;0.60;;
23163;SDS011;31429;42.674;23.350;2024-03-25T01:36:51;2.00;;;0.90;;
23163;SDS011;31429;42.674;23.350;2024-03-25T01:38:11;0.77;;;0.77;;
23163;SDS011;31429;42.674;23.350;2024-03-25T01:39:14;0.60;;;0.60;;
23163;SDS011;31429;42.674;23.350;2024-03-25T01:40:15;1.20;;;0.80;;
23163;SDS011;31429;42.674;23.350;2024-03-25T01:41:19;0.80;;;0.80;;
23163;SDS011;31429;42.674;23.350;2024-03-25T01:42:40;1.42;;;0.60;;
23163;SDS011;31429;42.674;23.350;2024-03-25T01:43:41;0.90;;;0.90;;
23163;SDS011;31429;42.674;23.350;2024-03-25T01:44:42;0.73;;;0.73;;
23163;SDS011;31429;42.674;23.350;2024-03-25T01:45:42;0.70;;;0.70;;
23163;SDS011;31429;42.674;23.350;2024-03-25T01:47:23;0.80;;;0.80;;
23163;SDS011;31429;42.674;23.350;2024-03-25T01:49:04;0.90;;;0.90;;
23163;SDS011;31429;42.674;23.350;2024-03-25T01:50:25;0.90;;;0.90;;
23163;SDS011;31429;42.674;23.350;2024-03-25T01:51:46;0.90;;;0.90;;
23163;SDS011;31429;42.674;23.350;2024-03-25T01:53:07;0.90;;;0.90;;
23163;SDS011;31429;42.674;23.350;2024-03-25T01:54:08;1.65;;;1.10;;
23163;SDS011;31429;42.674;23.350;2024-03-25T01:55:12;1.00;;;1.00;;
23163;SDS011;31429;42.674;23.350;2024-03-25T01:56:54;1.13;;;0.90;;
23163;SDS011;31429;42.674;23.350;2024-03-25T01:58:15;1.20;;;1.10;;
23163;SDS011;31429;42.674;23.350;2024-03-25T01:59:37;0.98;;;0.80;;
23163;SDS011;31429;42.674;23.350;2024-03-25T02:00:39;0.90;;;0.90;;
23163;SDS011;31429;42.674;23.350;2024-03-25T02:01:40;0.95;;;0.90;;
23163;SDS011;31429;42.674;23.350;2024-03-25T02:02:41;1.20;;;1.00;;
23163;SDS011;31429;42.674;23.350;2024-03-25T02:03:44;1.00;;;1.00;;
23163;SDS011;31429;42.674;23.350;2024-03-25T02:04:45;1.17;;;1.17;;
23163;SDS011;31429;42.674;23.350;2024-03-25T02:05:46;1.10;;;1.10;;
23163;SDS011;31429;42.674;23.350;2024-03-25T02:06:47;1.17;;;0.93;;
23163;SDS011;31429;42.674;23.350;2024-03-25T02:07:50;0.90;;;0.90;;
23163;SDS011;31429;42.674;23.350;2024-03-25T02:08:52;1.20;;;1.10;;
23163;SDS011;31429;42.674;23.350;2024-03-25T02:09:55;1.00;;;1.00;;
23163;SDS011;31429;42.674;23.350;2024-03-25T02:10:57;1.00;;;1.00;;
23163;SDS011;31429;42.674;23.350;2024-03-25T02:11:58;0.80;;;0.80;;
23163;SDS011;31429;42.674;23.350;2024-03-25T02:13:01;0.60;;;0.60;;
23163;SDS011;31429;42.674;23.350;2024-03-25T02:14:02;1.90;;;0.63;;
23163;SDS011;31429;42.674;23.350;2024-03-25T02:15:03;0.60;;;0.60;;
23163;SDS011;31429;42.674;23.350;2024-03-25T02:16:05;0.80;;;0.80;;
23163;SDS011;31429;42.674;23.350;2024-03-25T02:17:06;0.70;;;0.70;;
23163;SDS011;31429;42.674;23.350;2024-03-25T02:18:08;0.80;;;0.80;;
23163;SDS011;31429;42.674;23.350;2024-03-25T02:19:09;0.67;;;0.67;;
23163;SDS011;31429;42.674;23.350;2024-03-25T02:20:32;2.47;;;0.80;;
23163;SDS011;31429;42.674;23.350;2024-03-25T02:21:33;0.80;;;0.80;;
23163;SDS011;31429;42.674;23.350;2024-03-25T02:22:34;0.60;;;0.60;;
23163;SDS011;31429;42.674;23.350;2024-03-25T02:24:14;0.80;;;0.80;;
23163;SDS011;31429;42.674;23.350;2024-03-25T02:25:35;0.90;;;0.90;;
23163;SDS011;31429;42.674;23.350;2024-03-25T02:26:57;0.90;;;0.90;;
23163;SDS011;31429;42.674;23.350;2024-03-25T02:27:58;0.97;;;0.97;;
23163;SDS011;31429;42.674;23.350;2024-03-25T02:28:59;0.97;;;0.97;;
23163;SDS011;31429;42.674;23.350;2024-03-25T02:30:03;0.90;;;0.90;;
23163;SDS011;31429;42.674;23.350;2024-03-25T02:31:06;0.90;;;0.90;;
23163;SDS011;31429;42.674;23.350;2024-03-25T02:32:06;0.70;;;0.70;;
23163;SDS011;31429;42.674;23.350;2024-03-25T02:33:27;1.00;;;1.00;;
23163;SDS011;31429;42.674;23.350;2024-03-25T02:34:28;0.97;;;0.97;;
23163;SDS011;31429;42.674;23.350;2024-03-25T02:35:29;0.90;;;0.90;;
23163;SDS011;31429;42.674;23.350;2024-03-25T02:36:30;1.00;;;1.00;;
23163;SDS011;31429;42.674;23.350;2024-03-25T02:37:31;0.90;;;0.90;;
23163;SDS011;31429;42.674;23.350;2024-03-25T02:38:53;0.80;;;0.80;;
23163;SDS011;31429;42.674;23.350;2024-03-25T02:39:54;1.00;;;1.00;;
23163;SDS011;31429;42.674;23.350;2024-03-25T02:40:59;0.95;;;0.95;;
23163;SDS011;31429;42.674;23.350;2024-03-25T02:42:00;1.02;;;1.02;;
23163;SDS011;31429;42.674;23.350;2024-03-25T02:43:01;0.70;;;0.70;;
23163;SDS011;31429;42.674;23.350;2024-03-25T02:44:22;1.10;;;1.10;;
23163;SDS011;31429;42.674;23.350;2024-03-25T02:45:23;0.80;;;0.80;;
23163;SDS011;31429;42.674;23.350;2024-03-25T02:46:24;0.80;;;0.80;;
23163;SDS011;31429;42.674;23.350;2024-03-25T02:47:25;0.87;;;0.87;;
23163;SDS011;31429;42.674;23.350;2024-03-25T02:48:26;0.90;;;0.90;;
23163;SDS011;31429;42.674;23.350;2024-03-25T02:49:27;0.77;;;0.77;;
23163;SDS011;31429;42.674;23.350;2024-03-25T02:50:48;0.70;;;0.70;;
23163;SDS011;31429;42.674;23.350;2024-03-25T02:51:49;0.90;;;0.90;;
23163;SDS011;31429;42.674;23.350;2024-03-25T02:52:50;0.80;;;0.80;;
23163;SDS011;31429;42.674;23.350;2024-03-25T02:53:50;0.70;;;0.70;;
23163;SDS011;31429;42.674;23.350;2024-03-25T02:54:51;0.80;;;0.80;;
23163;SDS011;31429;42.674;23.350;2024-03-25T02:56:13;0.90;;;0.90;;
23163;SDS011;31429;42.674;23.350;2024-03-25T02:57:14;0.95;;;0.90;;
23163;SDS011;31429;42.674;23.350;2024-03-25T02:58:15;0.83;;;0.83;;
23163;SDS011;31429;42.674;23.350;2024-03-25T02:59:15;0.70;;;0.70;;
23163;SDS011;31429;42.674;23.350;2024-03-25T03:00:16;0.87;;;0.87;;
23163;SDS011;31429;42.674;23.350;2024-03-25T03:01:17;0.90;;;0.90;;
23163;SDS011;31429;42.674;23.350;2024-03-25T03:02:18;0.80;;;0.80;;
23163;SDS011;31429;42.674;23.350;2024-03-25T03:03:19;1.10;;;1.10;;
23163;SDS011;31429;42.674;23.350;2024-03-25T03:04:20;0.80;;;0.80;;
23163;SDS011;31429;42.674;23.350;2024-03-25T03:05:20;1.17;;;1.00;;
23163;SDS011;31429;42.674;23.350;2024-03-25T03:06:21;1.10;;;1.10;;
23163;SDS011;31429;42.674;23.350;2024-03-25T03:07:42;1.10;;;1.10;;
23163;SDS011;31429;42.674;23.350;2024-03-25T03:08:43;1.03;;;1.03;;
23163;SDS011;31429;42.674;23.350;2024-03-25T03:09:43;1.23;;;1.23;;
23163;SDS011;31429;42.674;23.350;2024-03-25T03:10:44;0.97;;;0.97;;
23163;SDS011;31429;42.674;23.350;2024-03-25T03:11:46;1.10;;;1.10;;
23163;SDS011;31429;42.674;23.350;2024-03-25T03:12:47;1.30;;;1.30;;
23163;SDS011;31429;42.674;23.350;2024-03-25T03:13:48;1.67;;;1.57;;
23163;SDS011;31429;42.674;23.350;2024-03-25T03:14:48;1.70;;;1.70;;
23163;SDS011;31429;42.674;23.350;2024-03-25T03:15:49;1.40;;;1.40;;
23163;SDS011;31429;42.674;23.350;2024-03-25T03:16:50;1.10;;;1.10;;
23163;SDS011;31429;42.674;23.350;2024-03-25T03:18:11;1.88;;;1.77;;
23163;SDS011;31429;42.674;23.350;2024-03-25T03:19:11;1.20;;;1.20;;
23163;SDS011;31429;42.674;23.350;2024-03-25T03:20:12;1.50;;;1.50;;
23163;SDS011;31429;42.674;23.350;2024-03-25T03:21:13;1.30;;;1.30;;
23163;SDS011;31429;42.674;23.350;2024-03-25T03:22:14;1.30;;;1.30;;
23163;SDS011;31429;42.674;23.350;2024-03-25T03:23:14;1.57;;;1.50;;
23163;SDS011;31429;42.674;23.350;2024-03-25T03:24:15;1.40;;;1.40;;
23163;SDS011;31429;42.674;23.350;2024-03-25T03:25:16;1.67;;;1.57;;
23163;SDS011;31429;42.674;23.350;2024-03-25T03:26:17;1.70;;;1.60;;
23163;SDS011;31429;42.674;23.350;2024-03-25T03:27:19;1.83;;;1.73;;
23163;SDS011;31429;42.674;23.350;2024-03-25T03:28:20;1.30;;;1.30;;
23163;SDS011;31429;42.674;23.350;2024-03-25T03:29:20;1.57;;;1.57;;
23163;SDS011;31429;42.674;23.350;2024-03-25T03:30:21;1.70;;;1.70;;
23163;SDS011;31429;42.674;23.350;2024-03-25T03:31:22;1.37;;;1.37;;
23163;SDS011;31429;42.674;23.350;2024-03-25T03:32:23;1.60;;;1.60;;
23163;SDS011;31429;42.674;23.350;2024-03-25T03:33:24;1.63;;;1.60;;
23163;SDS011;31429;42.674;23.350;2024-03-25T03:34:24;1.40;;;1.40;;
23163;SDS011;31429;42.674;23.350;2024-03-25T03:35:25;1.27;;;1.27;;
23163;SDS011;31429;42.674;23.350;2024-03-25T03:36:26;1.50;;;1.50;;
23163;SDS011;31429;42.674;23.350;2024-03-25T03:37:27;1.50;;;1.40;;
23163;SDS011;31429;42.674;23.350;2024-03-25T03:38:27;1.70;;;1.60;;
23163;SDS011;31429;42.674;23.350;2024-03-25T03:39:28;1.27;;;1.27;;
23163;SDS011;31429;42.674;23.350;2024-03-25T03:40:29;1.30;;;1.30;;
23163;SDS011;31429;42.674;23.350;2024-03-25T03:41:30;1.63;;;1.53;;
23163;SDS011;31429;42.674;23.350;2024-03-25T03:42:32;1.27;;;1.27;;
23163;SDS011;31429;42.674;23.350;2024-03-25T03:43:32;1.77;;;1.67;;
23163;SDS011;31429;42.674;23.350;2024-03-25T03:44:33;1.50;;;1.50;;
23163;SDS011;31429;42.674;23.350;2024-03-25T03:45:34;1.77;;;1.70;;
23163;SDS011;31429;42.674;23.350;2024-03-25T03:46:55;1.45;;;1.35;;
23163;SDS011;31429;42.674;23.350;2024-03-25T03:47:55;1.53;;;1.43;;
23163;SDS011;31429;42.674;23.350;2024-03-25T03:48:56;1.63;;;1.60;;
23163;SDS011;31429;42.674;23.350;2024-03-25T03:49:57;1.63;;;1.60;;
23163;SDS011;31429;42.674;23.350;2024-03-25T03:50:58;1.30;;;1.30;;
23163;SDS011;31429;42.674;23.350;2024-03-25T03:51:59;1.90;;;1.80;;
23163;SDS011;31429;42.674;23.350;2024-03-25T03:52:59;1.87;;;1.77;;
23163;SDS011;31429;42.674;23.350;2024-03-25T03:54:00;1.87;;;1.77;;
23163;SDS011;31429;42.674;23.350;2024-03-25T03:55:01;2.07;;;1.97;;
23163;SDS011;31429;42.674;23.350;2024-03-25T03:56:03;1.97;;;1.87;;
23163;SDS011;31429;42.674;23.350;2024-03-25T03:57:22;2.00;;;1.90;;
23163;SDS011;31429;42.674;23.350;2024-03-25T03:58:25;2.43;;;2.30;;
23163;SDS011;31429;42.674;23.350;2024-03-25T03:59:26;1.90;;;1.80;;
23163;SDS011;31429;42.674;23.350;2024-03-25T04:00:27;2.27;;;2.17;;
23163;SDS011;31429;42.674;23.350;2024-03-25T04:01:27;2.13;;;1.90;;
23163;SDS011;31429;42.674;23.350;2024-03-25T04:02:28;2.42;;;2.22;;
23163;SDS011;31429;42.674;23.350;2024-03-25T04:03:29;2.10;;;2.00;;
23163;SDS011;31429;42.674;23.350;2024-03-25T04:04:30;2.40;;;1.93;;
23163;SDS011;31429;42.674;23.350;2024-03-25T04:05:31;2.00;;;1.90;;
23163;SDS011;31429;42.674;23.350;2024-03-25T04:06:31;1.97;;;1.87;;
23163;SDS011;31429;42.674;23.350;2024-03-25T04:07:32;1.90;;;1.80;;
23163;SDS011;31429;42.674;23.350;2024-03-25T04:08:33;2.20;;;2.00;;
23163;SDS011;31429;42.674;23.350;2024-03-25T04:09:34;1.90;;;1.80;;
23163;SDS011;31429;42.674;23.350;2024-03-25T04:10:34;2.33;;;2.20;;
23163;SDS011;31429;42.674;23.350;2024-03-25T04:11:36;2.03;;;1.92;;
23163;SDS011;31429;42.674;23.350;2024-03-25T04:12:37;2.17;;;2.07;;
23163;SDS011;31429;42.674;23.350;2024-03-25T04:13:40;2.28;;;2.17;;
23163;SDS011;31429;42.674;23.350;2024-03-25T04:14:41;2.17;;;2.08;;
23163;SDS011;31429;42.674;23.350;2024-03-25T04:15:42;2.00;;;1.90;;
23163;SDS011;31429;42.674;23.350;2024-03-25T04:16:43;3.10;;;2.50;;
23163;SDS011;31429;42.674;23.350;2024-03-25T04:17:44;2.17;;;2.07;;
23163;SDS011;31429;42.674;23.350;2024-03-25T04:19:04;2.58;;;2.38;;
23163;SDS011;31429;42.674;23.350;2024-03-25T04:20:06;2.37;;;1.97;;
23163;SDS011;31429;42.674;23.350;2024-03-25T04:21:26;2.88;;;2.30;;
23163;SDS011;31429;42.674;23.350;2024-03-25T04:22:27;2.00;;;1.90;;
23163;SDS011;31429;42.674;23.350;2024-03-25T04:23:28;3.17;;;2.87;;
23163;SDS011;31429;42.674;23.350;2024-03-25T04:24:29;2.20;;;2.07;;
23163;SDS011;31429;42.674;23.350;2024-03-25T04:25:30;4.03;;;2.90;;
23163;SDS011;31429;42.674;23.350;2024-03-25T04:26:51;3.97;;;3.63;;
23163;SDS011;31429;42.674;23.350;2024-03-25T04:27:52;4.13;;;2.93;;
23163;SDS011;31429;42.674;23.350;2024-03-25T04:28:54;3.63;;;3.33;;
23163;SDS011;31429;42.674;23.350;2024-03-25T04:29:55;3.70;;;3.40;;
23163;SDS011;31429;42.674;23.350;2024-03-25T04:30:55;3.53;;;3.33;;
23163;SDS011;31429;42.674;23.350;2024-03-25T04:31:56;3.70;;;3.40;;
23163;SDS011;31429;42.674;23.350;2024-03-25T04:32:57;3.73;;;3.43;;
23163;SDS011;31429;42.674;23.350;2024-03-25T04:33:58;4.03;;;3.73;;
23163;SDS011;31429;42.674;23.350;2024-03-25T04:34:59;4.57;;;4.20;;
23163;SDS011;31429;42.674;23.350;2024-03-25T04:36:00;3.85;;;3.50;;
23163;SDS011;31429;42.674;23.350;2024-03-25T04:37:00;4.27;;;3.87;;
23163;SDS011;31429;42.674;23.350;2024-03-25T04:38:01;4.60;;;4.10;;
23163;SDS011;31429;42.674;23.350;2024-03-25T04:39:03;4.50;;;4.10;;
23163;SDS011;31429;42.674;23.350;2024-03-25T04:40:04;4.07;;;3.77;;
23163;SDS011;31429;42.674;23.350;2024-03-25T04:41:05;4.40;;;4.00;;
23163;SDS011;31429;42.674;23.350;2024-03-25T04:42:06;5.80;;;4.73;;
23163;SDS011;31429;42.674;23.350;2024-03-25T04:43:07;4.77;;;4.37;;
23163;SDS011;31429;42.674;23.350;2024-03-25T04:44:09;5.17;;;4.60;;
23163;SDS011;31429;42.674;23.350;2024-03-25T04:45:10;5.35;;;4.85;;
23163;SDS011;31429;42.674;23.350;2024-03-25T04:46:30;4.88;;;4.38;;
23163;SDS011;31429;42.674;23.350;2024-03-25T04:47:31;6.40;;;5.70;;
23163;SDS011;31429;42.674;23.350;2024-03-25T04:48:32;7.93;;;6.37;;
23163;SDS011;31429;42.674;23.350;2024-03-25T04:49:33;7.27;;;5.57;;
23163;SDS011;31429;42.674;23.350;2024-03-25T04:50:34;7.13;;;6.37;;
23163;SDS011;31429;42.674;23.350;2024-03-25T04:51:35;7.10;;;6.40;;
23163;SDS011;31429;42.674;23.350;2024-03-25T04:52:36;7.27;;;6.57;;
23163;SDS011;31429;42.674;23.350;2024-03-25T04:53:36;8.00;;;6.80;;
23163;SDS011;31429;42.674;23.350;2024-03-25T04:54:37;7.17;;;6.47;;
23163;SDS011;31429;42.674;23.350;2024-03-25T04:55:38;7.67;;;6.60;;
23163;SDS011;31429;42.674;23.350;2024-03-25T04:56:39;8.43;;;6.60;;
23163;SDS011;31429;42.674;23.350;2024-03-25T04:57:40;8.38;;;7.05;;
23163;SDS011;31429;42.674;23.350;2024-03-25T04:58:41;7.70;;;6.73;;
23163;SDS011;31429;42.674;23.350;2024-03-25T04:59:43;10.60;;;8.13;;
23163;SDS011;31429;42.674;23.350;2024-03-25T05:00:44;11.07;;;7.57;;
23163;SDS011;31429;42.674;23.350;2024-03-25T05:01:45;9.97;;;8.17;;
23163;SDS011;31429;42.674;23.350;2024-03-25T05:02:46;9.23;;;6.73;;
23163;SDS011;31429;42.674;23.350;2024-03-25T05:03:46;9.37;;;8.00;;
23163;SDS011;31429;42.674;23.350;2024-03-25T05:04:47;10.13;;;8.30;;
23163;SDS011;31429;42.674;23.350;2024-03-25T05:05:48;10.65;;;7.93;;
23163;SDS011;31429;42.674;23.350;2024-03-25T05:06:50;11.10;;;8.20;;
23163;SDS011;31429;42.674;23.350;2024-03-25T05:07:51;9.77;;;8.20;;
23163;SDS011;31429;42.674;23.350;2024-03-25T05:08:51;9.90;;;7.93;;
23163;SDS011;31429;42.674;23.350;2024-03-25T05:09:52;8.40;;;7.50;;
23163;SDS011;31429;42.674;23.350;2024-03-25T05:10:53;10.83;;;8.63;;
23163;SDS011;31429;42.674;23.350;2024-03-25T05:11:54;11.83;;;9.00;;
23163;SDS011;31429;42.674;23.350;2024-03-25T05:12:54;10.83;;;8.47;;
23163;SDS011;31429;42.674;23.350;2024-03-25T05:13:55;9.52;;;8.48;;
23163;SDS011;31429;42.674;23.350;2024-03-25T05:14:57;12.43;;;8.97;;
23163;SDS011;31429;42.674;23.350;2024-03-25T05:15:58;11.90;;;8.60;;
23163;SDS011;31429;42.674;23.350;2024-03-25T05:16:59;11.33;;;8.30;;
23163;SDS011;31429;42.674;23.350;2024-03-25T05:18:02;9.73;;;8.73;;
23163;SDS011;31429;42.674;23.350;2024-03-25T05:19:02;11.27;;;9.07;;
23163;SDS011;31429;42.674;23.350;2024-03-25T05:20:23;9.90;;;8.85;;
23163;SDS011;31429;42.674;23.350;2024-03-25T05:21:24;10.45;;;8.98;;
23163;SDS011;31429;42.674;23.350;2024-03-25T05:22:25;14.23;;;9.40;;
23163;SDS011;31429;42.674;23.350;2024-03-25T05:23:26;10.40;;;9.00;;
23163;SDS011;31429;42.674;23.350;2024-03-25T05:24:27;11.17;;;9.30;;
23163;SDS011;31429;42.674;23.350;2024-03-25T05:25:28;11.30;;;9.23;;
23163;SDS011;31429;42.674;23.350;2024-03-25T05:26:29;11.57;;;9.07;;
23163;SDS011;31429;42.674;23.350;2024-03-25T05:27:29;11.23;;;9.57;;
23163;SDS011;31429;42.674;23.350;2024-03-25T05:28:30;10.60;;;9.50;;
23163;SDS011;31429;42.674;23.350;2024-03-25T05:29:31;11.67;;;9.87;;
23163;SDS011;31429;42.674;23.350;2024-03-25T05:30:33;11.17;;;10.07;;
23163;SDS011;31429;42.674;23.350;2024-03-25T05:31:34;11.07;;;9.27;;
23163;SDS011;31429;42.674;23.350;2024-03-25T05:32:35;11.77;;;10.23;;
23163;SDS011;31429;42.674;23.350;2024-03-25T05:33:36;13.73;;;10.90;;
23163;SDS011;31429;42.674;23.350;2024-03-25T05:34:57;13.23;;;11.30;;
23163;SDS011;31429;42.674;23.350;2024-03-25T05:35:58;11.53;;;10.33;;
23163;SDS011;31429;42.674;23.350;2024-03-25T05:36:59;12.90;;;10.13;;
23163;SDS011;31429;42.674;23.350;2024-03-25T05:38:00;12.87;;;10.20;;
23163;SDS011;31429;42.674;23.350;2024-03-25T05:39:20;12.40;;;10.25;;
23163;SDS011;31429;42.674;23.350;2024-03-25T05:40:21;11.57;;;10.40;;
23163;SDS011;31429;42.674;23.350;2024-03-25T05:41:22;22.50;;;17.53;;
23163;SDS011;31429;42.674;23.350;2024-03-25T05:42:23;12.50;;;10.70;;
23163;SDS011;31429;42.674;23.350;2024-03-25T05:43:24;14.33;;;11.10;;
23163;SDS011;31429;42.674;23.350;2024-03-25T05:44:24;12.13;;;10.90;;
23163;SDS011;31429;42.674;23.350;2024-03-25T05:45:25;12.67;;;10.13;;
23163;SDS011;31429;42.674;23.350;2024-03-25T05:46:28;11.97;;;10.67;;
23163;SDS011;31429;42.674;23.350;2024-03-25T05:47:28;12.23;;;10.93;;
23163;SDS011;31429;42.674;23.350;2024-03-25T05:48:29;11.30;;;10.10;;
23163;SDS011;31429;42.674;23.350;2024-03-25T05:49:50;23.92;;;19.33;;
23163;SDS011;31429;42.674;23.350;2024-03-25T05:50:57;15.07;;;11.77;;
23163;SDS011;31429;42.674;23.350;2024-03-25T05:52:01;12.10;;;10.88;;
23163;SDS011;31429;42.674;23.350;2024-03-25T05:53:22;14.30;;;12.02;;
23163;SDS011;31429;42.674;23.350;2024-03-25T05:54:22;12.40;;;11.17;;
23163;SDS011;31429;42.674;23.350;2024-03-25T05:55:23;13.80;;;11.60;;
23163;SDS011;31429;42.674;23.350;2024-03-25T05:56:24;13.10;;;11.70;;
23163;SDS011;31429;42.674;23.350;2024-03-25T05:57:45;13.60;;;10.95;;
23163;SDS011;31429;42.674;23.350;2024-03-25T05:58:45;12.60;;;11.23;;
23163;SDS011;31429;42.674;23.350;2024-03-25T05:59:46;14.93;;;12.02;;
23163;SDS011;31429;42.674;23.350;2024-03-25T06:00:47;14.20;;;11.10;;
23163;SDS011;31429;42.674;23.350;2024-03-25T06:01:50;12.80;;;10.93;;
23163;SDS011;31429;42.674;23.350;2024-03-25T06:02:51;13.77;;;11.80;;
23163;SDS011;31429;42.674;23.350;2024-03-25T06:04:12;13.85;;;11.43;;
23163;SDS011;31429;42.674;23.350;2024-03-25T06:05:12;14.60;;;11.60;;
23163;SDS011;31429;42.674;23.350;2024-03-25T06:06:13;13.57;;;11.70;;
23163;SDS011;31429;42.674;23.350;2024-03-25T06:07:14;14.63;;;13.03;;
23163;SDS011;31429;42.674;23.350;2024-03-25T06:08:15;12.90;;;11.57;;
23163;SDS011;31429;42.674;23.350;2024-03-25T06:09:35;12.48;;;11.18;;
23163;SDS011;31429;42.674;23.350;2024-03-25T06:10:36;15.17;;;11.70;;
23163;SDS011;31429;42.674;23.350;2024-03-25T06:11:37;14.27;;;12.23;;
23163;SDS011;31429;42.674;23.350;2024-03-25T06:12:38;14.03;;;12.53;;
23163;SDS011;31429;42.674;23.350;2024-03-25T06:13:39;13.33;;;11.93;;
23163;SDS011;31429;42.674;23.350;2024-03-25T06:14:40;14.17;;;11.90;;